Time;durP1;ratioP1;P1;durP2;ratioP2;P2;SDS_P1;SDS_P2;PMS_P1;PMS_P2;Temp;Humidity;BMP_temperature;BMP_pressure;BME280_temperature;BME280_humidity;BME280_pressure;Samples;Min_cycle;Max_cycle;Signal;HPM_P1;HPM_P2
2022/09/12 00:00:52;;;;;;;11.50;4.30;;;;;;;13.06;97.32;100261.29;105852;1275;22557;-67
2022/09/12 00:03:42;;;;;;;12.70;4.60;;;;;;;13.02;97.21;100259.91;105728;1275;25324;-67
2022/09/12 00:06:18;;;;;;;14.90;5.20;;;;;;;12.98;96.97;100259.17;105793;1275;24395;-67
2022/09/12 00:08:49;;;;;;;15.10;5.40;;;;;;;12.93;96.88;100257.90;105812;1275;25563;-66
2022/09/12 00:11:21;;;;;;;11.70;4.40;;;;;;;12.89;97.15;100258.98;105850;1275;22557;-67
2022/09/12 00:13:55;;;;;;;18.70;5.20;;;;;;;12.86;97.29;100259.80;105783;1275;24284;-68
2022/09/12 00:16:29;;;;;;;13.70;4.50;;;;;;;12.84;97.26;100261.27;105890;1275;22626;-68
2022/09/12 00:19:01;;;;;;;11.90;4.60;;;;;;;12.84;97.41;100266.37;105883;1275;22629;-69
2022/09/12 00:21:35;;;;;;;13.40;4.60;;;;;;;12.85;97.69;100265.91;105776;1275;22715;-67
2022/09/12 00:24:07;;;;;;;13.40;4.70;;;;;;;12.86;97.77;100268.58;105760;1275;24370;-68
2022/09/12 00:26:39;;;;;;;12.20;3.80;;;;;;;12.87;97.81;100266.02;105839;1275;22553;-67
2022/09/12 00:29:15;;;;;;;13.20;4.10;;;;;;;12.86;97.77;100263.43;105775;1275;25263;-69
2022/09/12 00:31:47;;;;;;;13.00;4.60;;;;;;;12.86;97.70;100264.29;105774;1275;26250;-67
2022/09/12 00:34:19;;;;;;;13.80;3.90;;;;;;;12.85;97.85;100265.86;105765;1275;24996;-68
2022/09/12 00:36:51;;;;;;;13.70;4.50;;;;;;;12.84;97.81;100266.25;106401;1275;24085;-69
2022/09/12 00:39:23;;;;;;;9.70;4.00;;;;;;;12.83;97.80;100273.48;105920;1275;22805;-69
2022/09/12 00:41:54;;;;;;;12.40;3.60;;;;;;;12.84;98.01;100277.06;105704;1275;22563;-71
2022/09/12 00:44:48;;;;;;;15.10;4.50;;;;;;;12.83;98.11;100281.32;105755;1275;25292;-69
2022/09/12 00:47:24;;;;;;;13.80;3.40;;;;;;;12.83;98.17;100282.86;105782;1275;22730;-70
2022/09/12 00:49:59;;;;;;;14.20;4.00;;;;;;;12.83;98.05;100282.39;105761;1275;22682;-67
2022/09/12 00:52:35;;;;;;;10.10;3.80;;;;;;;12.84;97.93;100275.38;105815;1275;24185;-68
2022/09/12 00:55:10;;;;;;;11.30;3.80;;;;;;;12.84;98.23;100275.33;105686;1275;22573;-67
2022/09/12 00:57:51;;;;;;;11.70;3.70;;;;;;;12.84;98.00;100278.98;105811;1275;25611;-67
2022/09/12 01:00:26;;;;;;;11.20;3.60;;;;;;;12.82;98.09;100283.25;105802;1275;22548;-68
2022/09/12 01:03:01;;;;;;;13.30;3.40;;;;;;;12.79;98.10;100283.02;105826;1275;24242;-68
2022/09/12 01:05:34;;;;;;;14.60;3.90;;;;;;;12.75;98.12;100281.04;105945;1275;24249;-68
2022/09/12 01:08:06;;;;;;;16.40;3.60;;;;;;;12.73;98.02;100276.39;105786;1275;25799;-68
2022/09/12 01:10:40;;;;;;;10.60;3.30;;;;;;;12.71;98.02;100278.60;105817;1275;23390;-67
2022/09/12 01:13:13;;;;;;;11.40;3.20;;;;;;;12.68;98.17;100281.38;105914;1275;22565;-68
2022/09/12 01:15:44;;;;;;;9.00;2.70;;;;;;;12.67;98.05;100280.34;105873;1275;24184;-68
2022/09/12 01:18:22;;;;;;;11.10;3.00;;;;;;;12.64;97.92;100283.86;105952;1275;25895;-70
2022/09/12 01:21:11;;;;;;;11.30;3.10;;;;;;;12.62;98.05;100285.17;105783;1275;25709;-69
2022/09/12 01:23:59;;;;;;;;;;;;;;;12.60;97.98;100282.50;105828;1275;23984;-70
2022/09/12 01:27:16;;;;;;;10.20;3.10;;;;;;;12.59;98.00;100287.73;105946;1275;23194;-68
2022/09/12 01:30:04;;;;;;;11.10;2.90;;;;;;;12.58;98.17;100285.99;105895;1275;25546;-70
2022/09/12 01:32:51;;;;;;;12.50;3.70;;;;;;;12.57;98.17;100291.44;105755;1273;22546;-67
2022/09/12 01:35:31;;;;;;;11.70;3.70;;;;;;;12.56;98.50;100292.54;105784;1275;22620;-67
2022/09/12 01:38:14;;;;;;;10.90;2.80;;;;;;;12.56;98.43;100292.33;105903;1275;25349;-67
2022/09/12 01:40:54;;;;;;;10.00;3.50;;;;;;;12.56;98.59;100290.09;105848;1275;24347;-67
2022/09/12 01:43:30;;;;;;;;;;;;;;;12.56;98.48;100288.52;105777;1275;25244;-67
2022/09/12 01:46:10;;;;;;;10.50;3.30;;;;;;;12.54;98.61;100287.63;105781;1275;22601;-68
2022/09/12 01:48:47;;;;;;;12.40;3.00;;;;;;;12.53;98.57;100285.38;105905;1275;25333;-72
2022/09/12 01:51:26;;;;;;;9.60;2.50;;;;;;;12.51;98.59;100280.77;105761;1275;22681;-70
2022/09/12 01:54:03;;;;;;;12.90;2.90;;;;;;;12.50;98.48;100284.20;105731;1275;22572;-67
2022/09/12 01:56:39;;;;;;;9.30;2.90;;;;;;;12.47;98.45;100288.86;105860;1275;22596;-68
2022/09/12 01:59:17;;;;;;;13.20;3.50;;;;;;;12.46;98.32;100288.69;105817;1275;25899;-70
2022/09/12 02:01:53;;;;;;;11.40;3.90;;;;;;;12.45;98.27;100290.06;105933;1275;22557;-68
2022/09/12 02:04:29;;;;;;;14.30;2.90;;;;;;;12.46;98.44;100286.10;105711;1275;24200;-68
2022/09/12 02:07:07;;;;;;;10.20;2.80;;;;;;;12.47;98.21;100287.59;105709;1275;22546;-68
2022/09/12 02:09:43;;;;;;;9.00;2.90;;;;;;;12.46;98.36;100286.81;105691;1275;25441;-67
2022/09/12 02:12:19;;;;;;;11.50;3.70;;;;;;;12.43;98.52;100288.66;105785;1273;24377;-70
2022/09/12 02:14:55;;;;;;;10.00;3.00;;;;;;;12.40;98.57;100288.42;105866;1275;22695;-69
2022/09/12 02:17:29;;;;;;;15.00;3.10;;;;;;;12.38;98.74;100287.06;105798;1275;25460;-68
2022/09/12 02:20:06;;;;;;;12.20;3.40;;;;;;;12.36;98.85;100287.50;105793;1275;22653;-70
2022/09/12 02:22:40;;;;;;;13.30;3.30;;;;;;;12.35;98.91;100290.85;105936;1275;23315;-67
2022/09/12 02:25:14;;;;;;;12.70;3.90;;;;;;;12.34;98.83;100286.42;105763;1275;24285;-68
2022/09/12 02:27:49;;;;;;;11.10;3.50;;;;;;;12.33;98.92;100280.59;105799;1275;25542;-68
2022/09/12 02:30:22;;;;;;;12.20;3.40;;;;;;;12.31;98.77;100283.93;106052;1275;24401;-68
2022/09/12 02:33:01;;;;;;;11.10;3.70;;;;;;;12.31;98.67;100284.13;105827;1275;22589;-68
2022/09/12 02:35:43;;;;;;;17.60;3.90;;;;;;;12.28;98.63;100283.64;105902;1275;24343;-67
2022/09/12 02:38:20;;;;;;;11.00;3.40;;;;;;;12.27;98.47;100285.35;105752;1275;26521;-67
2022/09/12 02:40:51;;;;;;;12.10;3.50;;;;;;;12.26;98.39;100280.35;105853;1275;22569;-69
2022/09/12 02:43:23;;;;;;;14.50;2.80;;;;;;;12.25;98.41;100282.79;105783;1275;24758;-68
2022/09/12 02:45:55;;;;;;;11.70;3.60;;;;;;;12.23;98.39;100283.41;106906;1275;22852;-70
2022/09/12 02:48:30;;;;;;;10.40;3.00;;;;;;;12.19;98.06;100289.23;106052;1275;26544;-68
2022/09/12 02:51:03;;;;;;;10.40;2.80;;;;;;;12.13;97.88;100290.12;105782;1275;24239;-67
2022/09/12 02:53:35;;;;;;;11.40;3.00;;;;;;;12.09;97.93;100291.23;105796;1275;25338;-67
2022/09/12 02:56:26;;;;;;;10.90;2.90;;;;;;;12.05;97.90;100295.30;105720;1275;22621;-66
2022/09/12 02:59:02;;;;;;;7.90;2.30;;;;;;;12.00;98.22;100294.25;105800;1275;22563;-69
2022/09/12 03:01:51;;;;;;;11.80;3.20;;;;;;;11.97;98.29;100294.91;105696;1275;22563;-69
2022/09/12 03:04:47;;;;;;;10.90;2.60;;;;;;;11.94;98.28;100301.04;105760;1275;24369;-67
2022/09/12 03:07:36;;;;;;;12.90;3.30;;;;;;;11.93;98.41;100299.54;105672;1275;25391;-67
2022/09/12 03:10:17;;;;;;;9.40;2.40;;;;;;;11.91;98.70;100295.50;105658;1275;22535;-68
2022/09/12 03:13:01;;;;;;;8.00;2.30;;;;;;;11.90;98.80;100293.24;105786;1275;22561;-68
2022/09/12 03:15:44;;;;;;;8.10;2.60;;;;;;;11.89;99.14;100293.60;105649;1274;22557;-68
2022/09/12 03:18:26;;;;;;;8.90;2.50;;;;;;;11.89;99.34;100295.38;105711;1275;23087;-67
2022/09/12 03:21:06;;;;;;;14.80;3.20;;;;;;;11.89;99.53;100296.08;105624;1275;25465;-68
2022/09/12 03:23:43;;;;;;;9.10;2.60;;;;;;;11.90;99.70;100289.89;105822;1275;22550;-68
2022/09/12 03:26:22;;;;;;;10.00;2.40;;;;;;;11.91;99.69;100289.81;105726;1275;26490;-68
2022/09/12 03:28:55;;;;;;;6.90;2.20;;;;;;;11.93;99.67;100288.21;105765;1274;25287;-70
2022/09/12 03:31:27;;;;;;;9.90;2.70;;;;;;;11.95;99.68;100285.73;105699;1275;22834;-66
2022/09/12 03:33:59;;;;;;;8.70;2.50;;;;;;;11.98;99.71;100285.23;105778;1275;22553;-68
2022/09/12 03:36:31;;;;;;;6.90;2.30;;;;;;;12.00;99.91;100282.30;105696;1275;25394;-68
2022/09/12 03:39:03;;;;;;;8.40;2.60;;;;;;;12.01;99.73;100279.48;105635;1275;25340;-67
2022/09/12 03:41:35;;;;;;;8.20;2.90;;;;;;;12.03;99.64;100280.00;105711;1275;26041;-67
2022/09/12 03:44:08;;;;;;;9.50;2.70;;;;;;;12.06;99.69;100288.80;105838;1275;24227;-67
2022/09/12 03:46:39;;;;;;;10.50;3.30;;;;;;;12.06;99.63;100289.70;105820;1275;22587;-68
2022/09/12 03:49:10;;;;;;;13.00;3.10;;;;;;;12.08;99.67;100288.15;105790;1275;24356;-68
2022/09/12 03:51:43;;;;;;;11.10;2.70;;;;;;;12.09;99.64;100287.21;105716;1275;25388;-67
2022/09/12 03:54:14;;;;;;;16.50;2.80;;;;;;;12.12;99.45;100290.60;105869;1275;24225;-68
2022/09/12 03:56:46;;;;;;;10.10;3.30;;;;;;;12.14;99.57;100292.73;105872;1275;26697;-68
2022/09/12 03:59:18;;;;;;;11.40;3.40;;;;;;;12.13;99.60;100288.38;105682;1275;22620;-71
2022/09/12 04:01:49;;;;;;;8.80;2.60;;;;;;;12.13;99.57;100294.45;105630;1275;23967;-68
2022/09/12 04:04:23;;;;;;;12.20;2.50;;;;;;;12.13;99.47;100299.00;105833;1275;25364;-69
2022/09/12 04:06:54;;;;;;;10.00;2.70;;;;;;;12.12;99.64;100302.47;105719;1275;22566;-70
2022/09/12 04:09:26;;;;;;;10.00;2.50;;;;;;;12.13;99.60;100302.67;105650;1275;25662;-66
2022/09/12 04:11:57;;;;;;;11.60;2.30;;;;;;;12.14;99.66;100307.92;105501;1275;22639;-66
2022/09/12 04:14:29;;;;;;;12.70;3.10;;;;;;;12.13;99.67;100313.38;105693;1275;25444;-67
2022/09/12 04:17:00;;;;;;;12.50;2.70;;;;;;;12.11;99.63;100308.61;105508;1275;22626;-67
2022/09/12 04:19:32;;;;;;;10.00;2.50;;;;;;;12.11;99.74;100307.17;105383;1275;22603;-67
2022/09/12 04:22:03;;;;;;;9.60;3.10;;;;;;;12.12;99.65;100305.11;105482;1275;25343;-67
2022/09/12 04:24:34;;;;;;;13.10;3.40;;;;;;;12.14;99.94;100304.17;105703;1275;25565;-68
2022/09/12 04:27:06;;;;;;;13.10;3.30;;;;;;;12.14;99.91;100307.84;105503;1275;26534;-67
2022/09/12 04:29:38;;;;;;;10.80;3.20;;;;;;;12.12;99.88;100302.16;105811;1275;25533;-68
2022/09/12 04:32:09;;;;;;;11.90;3.20;;;;;;;12.12;100.00;100304.76;105780;1275;22556;-67
2022/09/12 04:34:41;;;;;;;9.40;2.90;;;;;;;12.11;100.00;100309.17;105610;1275;25511;-67
2022/09/12 04:37:12;;;;;;;10.90;2.80;;;;;;;12.11;100.00;100309.17;105438;1275;23242;-66
2022/09/12 04:39:44;;;;;;;10.30;2.80;;;;;;;12.12;100.00;100310.49;105561;1275;22611;-67
2022/09/12 04:42:15;;;;;;;9.40;3.10;;;;;;;12.12;100.00;100309.13;105531;1275;23289;-67
2022/09/12 04:44:48;;;;;;;10.30;3.40;;;;;;;12.13;100.00;100311.42;105496;1275;23210;-67
2022/09/12 04:47:19;;;;;;;12.20;3.50;;;;;;;12.13;100.00;100304.45;105401;1275;25610;-68
2022/09/12 04:49:52;;;;;;;8.80;2.80;;;;;;;12.14;100.00;100304.27;105474;1275;22556;-66
2022/09/12 04:52:26;;;;;;;9.40;4.00;;;;;;;12.16;100.00;100307.96;105487;1275;24268;-67
2022/09/12 04:54:57;;;;;;;10.10;3.40;;;;;;;12.17;100.00;100310.98;105494;1275;22538;-66
2022/09/12 04:57:28;;;;;;;11.80;3.40;;;;;;;12.21;100.00;100316.32;105326;1275;22614;-66
2022/09/12 05:00:00;;;;;;;10.90;3.40;;;;;;;12.24;100.00;100315.00;105533;1275;23342;-66
2022/09/12 05:02:33;;;;;;;15.70;4.80;;;;;;;12.28;100.00;100316.56;105750;1275;25266;-67
2022/09/12 05:05:05;;;;;;;12.20;3.20;;;;;;;12.31;100.00;100317.96;105660;1275;25535;-66
2022/09/12 05:07:37;;;;;;;11.10;3.80;;;;;;;12.33;100.00;100324.53;106011;1275;25408;-67
2022/09/12 05:10:11;;;;;;;12.50;3.00;;;;;;;12.36;100.00;100324.45;105675;1275;22482;-67
2022/09/12 05:12:42;;;;;;;10.60;4.10;;;;;;;12.38;100.00;100327.45;105693;1273;22607;-66
2022/09/12 05:15:14;;;;;;;10.50;2.60;;;;;;;12.41;100.00;100333.74;105482;1275;24067;-66
2022/09/12 05:17:45;;;;;;;10.60;3.30;;;;;;;12.43;100.00;100337.42;105398;1275;25482;-67
2022/09/12 05:20:17;;;;;;;11.80;3.00;;;;;;;12.44;100.00;100335.91;105488;1275;25781;-67
2022/09/12 05:22:48;;;;;;;10.50;3.20;;;;;;;12.44;100.00;100331.98;105582;1275;22563;-66
2022/09/12 05:25:20;;;;;;;13.20;4.30;;;;;;;12.46;100.00;100333.29;105548;1275;25445;-67
2022/09/12 05:27:54;;;;;;;9.50;3.20;;;;;;;12.49;100.00;100337.20;105456;1275;25553;-66
2022/09/12 05:30:25;;;;;;;10.30;3.80;;;;;;;12.53;100.00;100342.65;105523;1275;24339;-66
2022/09/12 05:32:57;;;;;;;10.80;3.20;;;;;;;12.56;100.00;100340.09;105516;1275;24381;-65
2022/09/12 05:35:29;;;;;;;10.80;3.20;;;;;;;12.60;100.00;100342.55;105857;1273;24450;-67
2022/09/12 05:38:00;;;;;;;10.10;3.10;;;;;;;12.63;100.00;100343.30;105594;1275;24337;-66
2022/09/12 05:40:33;;;;;;;11.40;3.00;;;;;;;12.67;100.00;100345.98;105413;1275;22644;-67
2022/09/12 05:43:05;;;;;;;15.90;3.90;;;;;;;12.70;100.00;100347.75;105457;1275;25334;-67
2022/09/12 05:45:36;;;;;;;9.40;2.90;;;;;;;12.74;100.00;100348.82;105567;1275;25604;-67
2022/09/12 05:48:09;;;;;;;15.50;3.70;;;;;;;12.77;100.00;100355.21;106018;1275;22565;-67
2022/09/12 05:50:42;;;;;;;12.90;3.30;;;;;;;12.80;100.00;100354.19;105637;1275;25413;-67
2022/09/12 05:53:13;;;;;;;13.30;3.50;;;;;;;12.83;100.00;100358.85;105505;1275;24452;-67
2022/09/12 05:55:45;;;;;;;14.20;2.80;;;;;;;12.86;100.00;100361.28;105567;1275;23072;-66
2022/09/12 05:58:16;;;;;;;14.40;3.90;;;;;;;12.89;100.00;100356.29;105545;1275;25404;-67
2022/09/12 06:00:48;;;;;;;11.90;3.50;;;;;;;12.95;100.00;100358.23;105396;1275;23586;-66
2022/09/12 06:03:20;;;;;;;9.40;3.00;;;;;;;13.01;100.00;100356.77;105359;1275;25582;-66
2022/09/12 06:05:51;;;;;;;10.60;3.20;;;;;;;13.07;100.00;100354.46;109433;1275;22534;-66
2022/09/12 06:08:22;;;;;;;9.80;2.90;;;;;;;13.12;100.00;100358.60;106028;1275;22535;-67
2022/09/12 06:11:01;;;;;;;8.90;3.00;;;;;;;13.19;100.00;100356.36;105565;1275;22569;-66
2022/09/12 06:13:36;;;;;;;10.20;3.10;;;;;;;13.24;100.00;100355.15;105621;1275;22490;-67
2022/09/12 06:16:09;;;;;;;8.90;2.80;;;;;;;13.31;100.00;100356.02;105586;1274;22589;-67
2022/09/12 06:18:42;;;;;;;8.80;3.50;;;;;;;13.37;100.00;100361.39;105424;1275;25658;-67
2022/09/12 06:21:14;;;;;;;10.30;2.90;;;;;;;13.40;99.99;100358.47;105513;1275;25605;-67
2022/09/12 06:23:46;;;;;;;8.30;2.40;;;;;;;13.42;100.00;100363.68;105483;1275;26540;-66
2022/09/12 06:26:22;;;;;;;10.40;2.60;;;;;;;13.44;99.93;100360.20;105526;1275;22575;-68
2022/09/12 06:28:55;;;;;;;12.00;3.20;;;;;;;13.46;99.55;100360.51;105436;1276;24455;-67
2022/09/12 06:31:29;;;;;;;11.50;3.00;;;;;;;13.48;99.52;100358.39;105529;1275;24244;-66
2022/09/12 06:34:03;;;;;;;9.50;2.50;;;;;;;13.51;99.82;100352.40;105520;1275;24343;-67
2022/09/12 06:36:39;;;;;;;11.60;3.20;;;;;;;13.55;99.70;100359.17;105636;1275;22643;-67
2022/09/12 06:39:13;;;;;;;8.50;2.00;;;;;;;13.60;99.41;100354.52;105620;1275;22537;-67
2022/09/12 06:41:45;;;;;;;8.90;2.00;;;;;;;13.65;98.97;100354.77;105593;1275;25464;-66
2022/09/12 06:44:19;;;;;;;8.20;2.20;;;;;;;13.72;99.14;100358.45;105488;1275;22600;-67
2022/09/12 06:46:52;;;;;;;9.90;2.20;;;;;;;13.78;99.05;100353.64;105602;1275;25381;-67
2022/09/12 06:49:26;;;;;;;8.20;2.20;;;;;;;13.85;98.61;100352.48;105498;1275;24253;-68
2022/09/12 06:51:58;;;;;;;8.60;2.30;;;;;;;13.89;98.14;100359.30;105452;1275;25270;-66
2022/09/12 06:54:29;;;;;;;9.80;2.00;;;;;;;13.92;97.99;100358.85;105515;1275;24423;-66
2022/09/12 06:57:01;;;;;;;6.60;2.00;;;;;;;13.95;97.82;100357.95;105523;1275;22630;-67
2022/09/12 06:59:33;;;;;;;8.50;2.00;;;;;;;14.02;98.41;100353.38;105540;1275;25327;-67
2022/09/12 07:02:05;;;;;;;9.60;2.00;;;;;;;14.11;98.07;100356.63;105587;1275;25212;-66
2022/09/12 07:04:36;;;;;;;6.50;1.90;;;;;;;14.18;97.74;100353.52;105502;1275;25585;-68
2022/09/12 07:07:08;;;;;;;9.80;2.00;;;;;;;14.25;97.23;100354.17;105636;1275;24420;-67
2022/09/12 07:09:40;;;;;;;10.80;2.30;;;;;;;14.29;95.65;100355.64;105519;1275;25268;-68
2022/09/12 07:12:13;;;;;;;5.30;1.30;;;;;;;14.31;94.93;100358.52;105499;1275;22704;-66
2022/09/12 07:14:44;;;;;;;6.70;1.80;;;;;;;14.34;94.25;100360.84;105632;1275;22599;-68
2022/09/12 07:17:16;;;;;;;6.60;1.40;;;;;;;14.37;94.38;100361.42;105772;1275;22657;-66
2022/09/12 07:19:49;;;;;;;7.50;1.30;;;;;;;14.44;95.00;100363.70;105622;1275;24339;-66
2022/09/12 07:22:21;;;;;;;9.20;1.40;;;;;;;14.51;93.46;100361.95;105543;1275;22716;-66
2022/09/12 07:24:54;;;;;;;10.10;1.20;;;;;;;14.57;93.32;100365.20;105641;1275;22557;-67
2022/09/12 07:27:27;;;;;;;5.00;1.30;;;;;;;14.56;93.12;100363.16;105584;1275;22538;-67
2022/09/12 07:29:59;;;;;;;6.00;1.40;;;;;;;14.57;92.91;100367.65;105502;1275;25672;-67
2022/09/12 07:32:30;;;;;;;4.50;1.30;;;;;;;14.58;92.01;100368.33;105669;1275;23860;-67
2022/09/12 07:35:02;;;;;;;6.10;1.20;;;;;;;14.61;91.34;100372.57;105489;1275;25461;-66
2022/09/12 07:37:36;;;;;;;5.20;1.50;;;;;;;14.65;91.19;100371.31;105636;1275;25548;-67
2022/09/12 07:40:10;;;;;;;4.40;1.20;;;;;;;14.72;91.72;100372.02;105483;1275;22693;-67
2022/09/12 07:42:42;;;;;;;3.90;1.00;;;;;;;14.77;90.69;100379.04;105539;1275;22557;-66
2022/09/12 07:45:14;;;;;;;7.90;1.50;;;;;;;14.84;91.06;100383.60;105500;1275;25268;-66
2022/09/12 07:47:45;;;;;;;8.10;1.40;;;;;;;14.92;91.24;100384.92;105531;1273;22556;-66
2022/09/12 07:50:17;;;;;;;6.40;1.30;;;;;;;14.99;90.95;100387.50;105598;1275;24478;-67
2022/09/12 07:52:50;;;;;;;11.50;1.30;;;;;;;15.06;90.00;100390.99;105513;1275;22567;-66
2022/09/12 07:55:22;;;;;;;6.50;1.40;;;;;;;15.07;89.96;100391.01;105394;1275;25402;-66
2022/09/12 07:57:54;;;;;;;5.10;1.10;;;;;;;15.11;90.22;100390.10;105471;1275;22559;-66
2022/09/12 08:00:34;;;;;;;3.80;1.00;;;;;;;15.18;90.06;100391.39;105461;1275;23116;-66
2022/09/12 08:03:05;;;;;;;;;;;;;;;15.26;87.66;100395.09;105473;1275;25223;-66
2022/09/12 08:05:37;;;;;;;6.70;1.20;;;;;;;15.30;87.18;100392.70;105538;1275;22636;-66
2022/09/12 08:08:10;;;;;;;8.70;1.20;;;;;;;15.31;87.56;100389.07;105695;1275;22643;-68
2022/09/12 08:10:41;;;;;;;6.70;1.20;;;;;;;15.39;87.66;100393.54;105594;1275;22695;-67
2022/09/12 08:13:13;;;;;;;5.10;1.00;;;;;;;15.44;87.23;100386.91;105498;1275;24239;-67
2022/09/12 08:15:44;;;;;;;6.00;0.80;;;;;;;15.51;86.61;100385.05;105407;1275;22667;-66
2022/09/12 08:18:16;;;;;;;4.90;0.80;;;;;;;15.58;86.44;100384.34;105655;1275;22751;-66
2022/09/12 08:20:48;;;;;;;4.10;1.00;;;;;;;15.68;85.86;100383.77;105695;1275;22649;-67
2022/09/12 08:23:22;;;;;;;6.10;0.90;;;;;;;15.73;85.50;100388.14;105654;1275;23183;-67
2022/09/12 08:25:55;;;;;;;5.80;0.90;;;;;;;15.74;84.26;100393.25;105453;1275;22704;-66
2022/09/12 08:28:27;;;;;;;4.90;0.90;;;;;;;15.71;83.84;100388.74;105502;1275;24330;-66
2022/09/12 08:31:02;;;;;;;6.70;0.90;;;;;;;15.74;84.66;100389.88;105575;1275;24230;-66
2022/09/12 08:33:34;;;;;;;6.60;0.90;;;;;;;15.81;84.10;100387.25;105610;1275;24409;-66
2022/09/12 08:36:10;;;;;;;7.20;1.00;;;;;;;15.91;84.36;100393.15;105477;1275;22603;-67
2022/09/12 08:38:44;;;;;;;4.40;0.90;;;;;;;16.04;84.57;100395.20;105546;1275;22697;-66
2022/09/12 08:41:26;;;;;;;7.00;1.10;;;;;;;16.13;83.30;100392.83;105579;1275;24247;-67
2022/09/12 08:44:16;;;;;;;5.50;0.80;;;;;;;16.07;81.81;100394.83;105476;1275;24368;-66
2022/09/12 08:47:02;;;;;;;7.60;1.20;;;;;;;15.96;81.83;100392.90;105445;1275;22979;-67
2022/09/12 08:49:38;;;;;;;4.90;1.10;;;;;;;15.90;80.95;100399.49;105573;1275;22706;-66
2022/09/12 08:52:15;;;;;;;7.30;1.00;;;;;;;15.88;81.72;100394.48;105600;1274;22483;-66
2022/09/12 08:54:47;;;;;;;4.10;0.90;;;;;;;15.87;82.37;100394.33;105455;1275;22560;-69
2022/09/12 08:57:19;;;;;;;4.80;1.00;;;;;;;15.88;81.93;100391.62;105479;1275;22704;-66
2022/09/12 08:59:51;;;;;;;6.30;1.10;;;;;;;15.89;81.30;100391.55;105514;1275;22663;-66
2022/09/12 09:02:46;;;;;;;4.10;0.80;;;;;;;15.97;80.87;100389.30;105575;1275;24266;-66
2022/09/12 09:05:25;;;;;;;5.30;1.00;;;;;;;16.07;79.03;100391.20;105564;1276;26509;-66
2022/09/12 09:08:19;;;;;;;4.60;1.00;;;;;;;16.17;79.41;100385.66;105590;1276;25196;-66
2022/09/12 09:10:55;;;;;;;6.70;1.00;;;;;;;16.34;78.04;100386.09;105658;1275;24452;-67
2022/09/12 09:16:33;;;;;;;4.40;0.80;;;;;;;16.59;78.21;100389.70;105368;1275;22589;-66
2022/09/12 09:19:11;;;;;;;7.80;1.30;;;;;;;16.68;78.49;100391.40;105613;1275;22579;-66
2022/09/12 09:21:50;;;;;;;4.30;0.90;;;;;;;16.72;78.64;100388.67;105559;1275;24439;-67
2022/09/12 09:24:26;;;;;;;4.80;0.90;;;;;;;16.74;77.86;100390.70;105469;1275;25505;-66
2022/09/12 09:27:01;;;;;;;5.20;0.90;;;;;;;16.77;76.79;100388.30;105671;1275;24387;-65
2022/09/12 09:29:41;;;;;;;3.10;0.70;;;;;;;16.83;76.82;100390.88;105493;1276;25682;-65
2022/09/12 09:32:18;;;;;;;3.90;0.70;;;;;;;16.86;74.86;100394.77;105450;1275;22510;-66
2022/09/12 09:34:50;;;;;;;7.00;1.00;;;;;;;16.82;74.61;100389.75;105561;1275;25621;-66
2022/09/12 09:37:28;;;;;;;3.90;0.80;;;;;;;16.82;74.98;100392.98;105442;1275;24452;-64
2022/09/12 09:40:07;;;;;;;5.10;0.80;;;;;;;16.82;74.22;100395.24;105389;1275;24239;-66
2022/09/12 09:42:45;;;;;;;5.10;0.80;;;;;;;16.84;73.45;100390.52;105529;1275;24375;-65
2022/09/12 09:45:19;;;;;;;4.40;0.80;;;;;;;16.85;74.05;100385.03;105408;1275;22731;-66
2022/09/12 09:47:54;;;;;;;4.00;0.90;;;;;;;16.88;73.52;100390.30;105553;1275;24254;-67
2022/09/12 09:50:25;;;;;;;4.70;0.90;;;;;;;16.90;73.54;100388.34;105505;1276;24291;-65
2022/09/12 09:53:01;;;;;;;5.00;0.70;;;;;;;16.92;73.00;100383.55;105479;1275;24227;-65
2022/09/12 09:55:40;;;;;;;6.00;0.90;;;;;;;16.96;71.76;100376.67;105572;1275;25335;-65
2022/09/12 09:58:11;;;;;;;5.10;1.10;;;;;;;17.02;71.77;100376.65;105593;1275;24330;-65
2022/09/12 10:00:44;;;;;;;8.80;0.90;;;;;;;17.10;72.05;100379.63;105536;1275;25412;-65
2022/09/12 10:03:37;;;;;;;7.10;0.80;;;;;;;17.23;73.38;100376.98;105556;1274;22621;-66
2022/09/12 10:06:26;;;;;;;4.90;1.20;;;;;;;17.37;72.81;100380.70;105389;1275;29604;-65
2022/09/12 10:09:18;;;;;;;4.20;0.90;;;;;;;17.37;71.80;100385.06;105470;1276;25426;-65
2022/09/12 10:11:52;;;;;;;7.40;0.90;;;;;;;17.34;71.92;100382.27;105488;1276;24255;-66
2022/09/12 10:14:35;;;;;;;5.50;0.90;;;;;;;17.40;72.17;100386.63;105523;1275;22571;-65
2022/09/12 10:17:28;;;;;;;5.30;0.80;;;;;;;17.47;70.88;100383.00;105396;1275;22582;-65
2022/09/12 10:20:00;;;;;;;7.50;0.90;;;;;;;17.51;70.22;100383.47;105385;1276;22601;-65
2022/09/12 10:22:32;;;;;;;6.30;0.90;;;;;;;17.53;69.84;100382.83;105487;1275;22540;-65
2022/09/12 10:25:11;;;;;;;3.40;0.80;;;;;;;17.57;69.77;100380.45;105462;1275;25623;-65
2022/09/12 10:27:43;;;;;;;3.30;0.80;;;;;;;17.60;70.32;100378.41;105346;1275;24305;-66
2022/09/12 10:30:23;;;;;;;7.10;1.20;;;;;;;17.65;70.30;100381.15;105377;1275;22578;-65
2022/09/12 10:33:00;;;;;;;5.30;0.90;;;;;;;17.63;70.40;100378.54;105559;1276;22894;-66
2022/09/12 10:35:44;;;;;;;8.50;0.70;;;;;;;17.59;70.40;100371.23;105611;1275;22624;-65
2022/09/12 10:38:24;;;;;;;3.90;0.80;;;;;;;17.53;69.29;100375.19;105721;1275;22541;-66
2022/09/12 10:41:02;;;;;;;6.30;0.80;;;;;;;17.48;68.59;100372.79;105595;1275;25262;-65
2022/09/12 10:43:38;;;;;;;4.50;0.80;;;;;;;17.46;68.74;100373.15;105455;1276;24278;-66
2022/09/12 10:46:31;;;;;;;5.50;1.00;;;;;;;17.48;68.70;100370.48;105447;1276;22717;-65
2022/09/12 10:49:26;;;;;;;4.70;0.60;;;;;;;17.54;69.11;100369.33;105513;1275;22598;-64
2022/09/12 10:52:16;;;;;;;5.00;0.90;;;;;;;17.64;68.28;100372.23;105435;1276;22501;-66
2022/09/12 10:54:58;;;;;;;7.30;0.80;;;;;;;17.70;68.39;100371.36;105407;1275;22586;-65
2022/09/12 10:58:03;;;;;;;8.70;1.10;;;;;;;17.74;67.96;100374.66;105505;1275;24338;-65
2022/09/12 11:00:40;;;;;;;4.70;0.90;;;;;;;17.72;68.11;100379.88;105395;1278;25378;-65
2022/09/12 11:03:23;;;;;;;6.10;0.80;;;;;;;17.70;68.14;100372.75;105494;1278;22560;-66
2022/09/12 11:05:58;;;;;;;4.80;0.70;;;;;;;17.67;67.74;100375.44;101493;1278;5507010;-66
2022/09/12 11:09:03;;;;;;;4.70;0.80;;;;;;;17.69;68.25;100370.75;105670;1279;25277;-65
2022/09/12 11:12:08;;;;;;;5.20;0.70;;;;;;;17.75;67.74;100371.84;105582;1278;24353;-66
2022/09/12 11:15:00;;;;;;;3.20;0.50;;;;;;;17.85;66.37;100373.41;105219;1282;22774;-65
2022/09/12 11:17:44;;;;;;;4.10;0.90;;;;;;;17.89;65.42;100371.41;105233;1282;22612;-65
2022/09/12 11:20:39;;;;;;;5.00;0.80;;;;;;;17.94;66.24;100364.52;105186;1282;25434;-65
2022/09/12 11:23:51;;;;;;;3.80;0.60;;;;;;;18.06;64.75;100368.48;105124;1281;25871;-66
2022/09/12 11:26:44;;;;;;;6.70;0.80;;;;;;;18.09;64.99;100364.09;105144;1282;25279;-65
2022/09/12 11:29:29;;;;;;;5.90;0.70;;;;;;;18.11;65.02;100367.61;105107;1282;25518;-66
2022/09/12 11:32:26;;;;;;;7.10;1.00;;;;;;;18.15;64.32;100362.95;105016;1282;22556;-67
2022/09/12 11:35:07;;;;;;;4.10;0.70;;;;;;;18.12;63.19;100365.59;105284;1282;22564;-65
2022/09/12 11:37:51;;;;;;;5.30;0.70;;;;;;;18.07;63.10;100366.63;105111;1279;25342;-65
2022/09/12 11:40:35;;;;;;;4.60;0.70;;;;;;;18.04;63.35;100359.92;105478;1281;22561;-65
2022/09/12 11:43:12;;;;;;;3.60;0.60;;;;;;;18.08;64.21;100358.70;105443;1281;25276;-65
2022/09/12 11:45:47;;;;;;;3.50;0.70;;;;;;;18.18;64.33;100362.34;105458;1281;22568;-66
2022/09/12 11:48:31;;;;;;;4.20;0.70;;;;;;;18.26;63.92;100357.49;105435;1279;22551;-65
2022/09/12 11:51:07;;;;;;;4.80;0.70;;;;;;;18.33;63.67;100362.19;105500;1278;22637;-67
2022/09/12 11:53:44;;;;;;;3.30;0.80;;;;;;;18.40;63.44;100357.09;105486;1278;24296;-64
2022/09/12 11:56:18;;;;;;;3.90;0.60;;;;;;;18.41;63.14;100363.10;105520;1275;22553;-65